createdAt,value
2022-08-19T00:00:54.317Z,3.90
2022-08-19T00:01:54.355Z,5.70
2022-08-19T00:02:54.737Z,4.70
2022-08-19T00:03:54.297Z,5.70
2022-08-19T00:04:54.358Z,7.00
2022-08-19T00:05:54.222Z,5.90
2022-08-19T00:06:54.231Z,5.70
2022-08-19T00:07:54.213Z,5.60
2022-08-19T00:08:54.224Z,5.10
2022-08-19T00:09:54.197Z,5.30
2022-08-19T00:10:54.213Z,5.20
2022-08-19T00:11:54.201Z,5.30
2022-08-19T00:12:54.175Z,4.90
2022-08-19T00:13:54.183Z,5.80
2022-08-19T00:14:54.149Z,6.60
2022-08-19T00:15:54.189Z,5.90
2022-08-19T00:16:54.145Z,5.90
2022-08-19T00:17:54.137Z,5.20
2022-08-19T00:18:54.098Z,4.70
2022-08-19T00:19:54.111Z,4.80
2022-08-19T00:20:54.134Z,4.00
2022-08-19T00:21:54.049Z,4.70
2022-08-19T00:22:54.247Z,7.40
2022-08-19T00:23:54.082Z,5.90
2022-08-19T00:24:54.070Z,6.70
2022-08-19T00:25:54.029Z,5.20
2022-08-19T00:26:54.125Z,4.60
2022-08-19T00:27:54.007Z,4.70
2022-08-19T00:28:54.034Z,4.10
2022-08-19T00:29:54.003Z,4.60
2022-08-19T00:30:54.017Z,4.70
2022-08-19T00:31:53.962Z,4.70
2022-08-19T00:32:54.218Z,4.70
2022-08-19T00:33:53.929Z,5.10
2022-08-19T00:34:53.937Z,4.50
2022-08-19T00:35:55.921Z,5.10
2022-08-19T00:36:53.911Z,3.80
2022-08-19T00:37:53.949Z,4.50
2022-08-19T00:38:53.907Z,3.80
2022-08-19T00:39:53.986Z,3.80
2022-08-19T00:40:53.875Z,3.80
2022-08-19T00:41:53.881Z,4.20
2022-08-19T00:42:54.018Z,4.80
2022-08-19T00:43:53.835Z,5.80
2022-08-19T00:44:53.947Z,5.20
2022-08-19T00:45:53.838Z,6.40
2022-08-19T00:46:57.796Z,5.50
2022-08-19T00:47:53.880Z,5.30
2022-08-19T00:48:53.799Z,4.40
2022-08-19T00:49:53.864Z,4.40
2022-08-19T00:50:53.780Z,4.70
2022-08-19T00:51:53.783Z,5.90
2022-08-19T00:52:53.941Z,5.20
2022-08-19T00:53:53.723Z,4.60
2022-08-19T00:54:53.759Z,5.30
2022-08-19T00:55:53.705Z,6.10
2022-08-19T00:56:54.250Z,6.20
2022-08-19T00:57:53.707Z,6.30
2022-08-19T00:58:53.724Z,5.20
2022-08-19T01:00:00.714Z,4.40
2022-08-19T01:00:53.687Z,4.80
2022-08-19T01:01:53.725Z,5.00
2022-08-19T01:02:53.865Z,4.90
2022-08-19T01:03:56.883Z,4.80
2022-08-19T01:04:53.639Z,5.10
2022-08-19T01:05:53.658Z,4.50
2022-08-19T01:06:53.652Z,4.60
2022-08-19T01:07:53.668Z,4.80
2022-08-19T01:08:53.607Z,4.00
2022-08-19T01:09:53.575Z,5.10
2022-08-19T01:10:53.625Z,5.20
2022-08-19T01:11:53.540Z,5.30
2022-08-19T01:12:53.747Z,4.90
2022-08-19T01:13:53.553Z,6.10
2022-08-19T01:14:53.549Z,5.40
2022-08-19T01:15:53.488Z,7.40
2022-08-19T01:16:53.541Z,6.10
2022-08-19T01:17:53.462Z,6.10
2022-08-19T01:18:53.485Z,7.30
2022-08-19T01:19:53.512Z,6.80
2022-08-19T01:20:53.464Z,6.30
2022-08-19T01:21:53.442Z,6.10
2022-08-19T01:22:53.675Z,5.10
2022-08-19T01:23:53.426Z,4.60
2022-08-19T01:24:53.446Z,5.20
2022-08-19T01:25:53.384Z,4.90
2022-08-19T01:26:53.433Z,5.60
2022-08-19T01:27:53.802Z,7.70
2022-08-19T01:28:53.395Z,5.10
2022-08-19T01:29:53.348Z,5.50
2022-08-19T01:30:53.418Z,6.50
2022-08-19T01:31:53.342Z,6.80
2022-08-19T01:32:53.567Z,5.40
2022-08-19T01:33:53.337Z,6.00
2022-08-19T01:34:53.346Z,5.40
2022-08-19T01:35:53.279Z,6.00
2022-08-19T01:36:53.303Z,4.20
2022-08-19T01:37:53.309Z,4.10
2022-08-19T01:38:53.322Z,4.90
2022-08-19T01:39:53.266Z,4.90
2022-08-19T01:40:53.272Z,5.60
2022-08-19T01:41:53.269Z,4.90
2022-08-19T01:42:53.424Z,5.20
2022-08-19T01:44:10.057Z,5.60
2022-08-19T01:44:53.260Z,5.10
2022-08-19T01:45:53.204Z,5.20
2022-08-19T01:46:53.218Z,5.60
2022-08-19T01:48:01.920Z,6.50
2022-08-19T01:48:53.170Z,5.30
2022-08-19T01:49:53.133Z,5.20
2022-08-19T01:50:53.177Z,6.20
2022-08-19T01:51:53.157Z,4.70
2022-08-19T01:53:06.234Z,6.20
2022-08-19T01:53:53.104Z,5.00
2022-08-19T01:54:53.169Z,5.50
2022-08-19T01:55:53.124Z,5.10
2022-08-19T01:56:53.082Z,6.30
2022-08-19T01:57:53.086Z,5.80
2022-08-19T01:58:53.064Z,5.80
2022-08-19T01:59:53.109Z,6.10
2022-08-19T02:00:53.164Z,6.10
2022-08-19T02:01:53.085Z,6.90
2022-08-19T02:02:53.243Z,9.00
2022-08-19T02:03:53.021Z,7.90
2022-08-19T02:04:52.991Z,7.20
2022-08-19T02:05:53.034Z,7.00
2022-08-19T02:06:53.007Z,6.20
2022-08-19T02:07:53.017Z,7.00
2022-08-19T02:08:52.969Z,9.10
2022-08-19T02:09:52.955Z,7.80
2022-08-19T02:10:52.978Z,6.10
2022-08-19T02:11:52.933Z,6.10
2022-08-19T02:12:53.031Z,6.40
2022-08-19T02:13:52.919Z,5.60
2022-08-19T02:14:52.945Z,6.00
2022-08-19T02:15:53.184Z,5.70
2022-08-19T02:16:52.886Z,5.20
2022-08-19T02:17:52.872Z,7.10
2022-08-19T02:18:52.861Z,7.40
2022-08-19T02:19:52.890Z,9.20
2022-08-19T02:20:52.818Z,7.20
2022-08-19T02:21:52.815Z,8.00
2022-08-19T02:22:52.995Z,6.10
2022-08-19T02:23:52.846Z,6.40
2022-08-19T02:24:52.815Z,4.90
2022-08-19T02:25:52.823Z,5.20
2022-08-19T02:26:52.772Z,5.70
2022-08-19T02:27:52.760Z,6.00
2022-08-19T02:28:52.752Z,5.70
2022-08-19T02:29:52.803Z,6.30
2022-08-19T02:30:52.754Z,7.20
2022-08-19T02:31:52.745Z,6.80
2022-08-19T02:32:52.761Z,7.00
2022-08-19T02:33:52.683Z,8.00
2022-08-19T02:34:52.690Z,11.10
2022-08-19T02:35:52.727Z,9.90
2022-08-19T02:36:52.700Z,8.80
2022-08-19T02:37:52.690Z,9.50
2022-08-19T02:38:54.404Z,8.30
2022-08-19T02:39:52.722Z,6.60
2022-08-19T02:40:52.826Z,7.90
2022-08-19T02:41:52.628Z,6.20
2022-08-19T02:42:52.753Z,8.90
2022-08-19T02:44:29.201Z,6.60
2022-08-19T02:44:52.625Z,6.80
2022-08-19T02:45:52.580Z,6.60
2022-08-19T02:46:52.634Z,6.90
2022-08-19T02:47:52.589Z,6.10
2022-08-19T02:48:52.558Z,6.30
2022-08-19T02:49:52.615Z,6.90
2022-08-19T02:50:53.592Z,8.30
2022-08-19T02:51:52.517Z,6.30
2022-08-19T02:52:52.800Z,6.00
2022-08-19T02:53:52.492Z,6.40
2022-08-19T02:54:52.492Z,6.50
2022-08-19T02:55:52.528Z,7.00
2022-08-19T02:56:52.482Z,6.50
2022-08-19T02:57:52.454Z,8.70
2022-08-19T02:58:52.450Z,7.60
2022-08-19T02:59:52.493Z,7.10
2022-08-19T03:00:52.499Z,6.90
2022-08-19T03:01:52.481Z,7.50
2022-08-19T03:02:52.573Z,6.60
2022-08-19T03:03:52.376Z,9.20
2022-08-19T03:04:52.436Z,7.50
2022-08-19T03:05:56.482Z,8.00
2022-08-19T03:06:52.378Z,7.60
2022-08-19T03:07:52.341Z,9.20
2022-08-19T03:08:52.328Z,10.20
2022-08-19T03:09:52.358Z,11.00
2022-08-19T03:10:52.306Z,8.60
2022-08-19T03:11:52.761Z,7.80
2022-08-19T03:12:52.454Z,9.90
2022-08-19T03:13:52.308Z,9.80
2022-08-19T03:14:52.314Z,9.70
2022-08-19T03:15:52.322Z,10.20
2022-08-19T03:16:52.268Z,8.70
2022-08-19T03:17:52.244Z,9.60
2022-08-19T03:18:52.250Z,9.30
2022-08-19T03:19:52.239Z,10.00
2022-08-19T03:20:52.227Z,8.30
2022-08-19T03:21:52.216Z,8.90
2022-08-19T03:22:52.395Z,8.30
2022-08-19T03:23:52.212Z,9.40
2022-08-19T03:24:52.188Z,10.00
2022-08-19T03:25:58.409Z,10.50
2022-08-19T03:26:52.165Z,12.10
2022-08-19T03:27:52.151Z,12.30
2022-08-19T03:28:58.358Z,11.40
2022-08-19T03:29:52.136Z,12.70
2022-08-19T03:30:52.101Z,11.50
2022-08-19T03:31:52.924Z,10.90
2022-08-19T03:32:53.376Z,9.70
2022-08-19T03:33:52.088Z,9.50
2022-08-19T03:34:52.070Z,10.10
2022-08-19T03:35:52.070Z,9.10
2022-08-19T03:36:52.057Z,8.20
2022-08-19T03:37:52.037Z,8.90
2022-08-19T03:38:56.408Z,9.20
2022-08-19T03:39:52.101Z,8.50
2022-08-19T03:40:52.007Z,8.40
2022-08-19T03:42:32.734Z,7.90
2022-08-19T03:42:51.989Z,9.60
2022-08-19T03:43:52.003Z,8.10
2022-08-19T03:44:51.996Z,8.20
2022-08-19T03:45:52.024Z,8.50
2022-08-19T03:46:51.964Z,8.50
2022-08-19T03:47:51.966Z,8.80
2022-08-19T03:48:51.938Z,10.80
2022-08-19T03:49:51.871Z,12.20
2022-08-19T03:50:51.866Z,10.30
2022-08-19T03:51:51.829Z,10.20
2022-08-19T03:52:51.995Z,9.40
2022-08-19T03:53:51.851Z,9.20
2022-08-19T03:54:51.867Z,8.10
2022-08-19T03:55:51.781Z,8.70
2022-08-19T03:56:51.821Z,11.50
2022-08-19T03:57:54.275Z,8.90
2022-08-19T03:58:51.751Z,9.70
2022-08-19T03:59:51.773Z,8.80
2022-08-19T04:00:51.824Z,8.60
2022-08-19T04:01:51.765Z,9.50
2022-08-19T04:02:58.533Z,10.50
2022-08-19T04:03:51.760Z,9.50
2022-08-19T04:04:51.700Z,10.10
2022-08-19T04:05:51.718Z,10.80
2022-08-19T04:06:51.681Z,9.90
2022-08-19T04:07:51.668Z,10.70
2022-08-19T04:08:51.664Z,10.90
2022-08-19T04:09:51.705Z,11.20
2022-08-19T04:10:51.670Z,11.50
2022-08-19T04:11:51.656Z,12.10
2022-08-19T04:12:51.738Z,12.80
2022-08-19T04:13:51.618Z,12.90
2022-08-19T04:14:51.614Z,13.80
2022-08-19T04:15:51.589Z,12.90
2022-08-19T04:16:51.688Z,13.00
2022-08-19T04:17:51.582Z,13.20
2022-08-19T04:18:51.570Z,14.10
2022-08-19T04:19:51.560Z,13.20
2022-08-19T04:20:51.546Z,12.10
2022-08-19T04:21:51.527Z,11.90
2022-08-19T04:22:51.618Z,11.50
2022-08-19T04:23:51.508Z,11.60
2022-08-19T04:24:51.541Z,12.70
2022-08-19T04:25:51.474Z,12.40
2022-08-19T04:26:51.473Z,11.90
2022-08-19T04:27:51.537Z,11.90
2022-08-19T04:28:51.494Z,11.00
2022-08-19T04:29:51.503Z,11.80
2022-08-19T04:30:51.426Z,10.00
2022-08-19T04:31:51.473Z,9.30
2022-08-19T04:32:51.397Z,9.50
2022-08-19T04:33:51.398Z,10.00
2022-08-19T04:35:02.002Z,9.70
2022-08-19T04:35:51.399Z,14.30
2022-08-19T04:36:51.368Z,13.10
2022-08-19T04:37:51.347Z,10.40
2022-08-19T04:38:51.378Z,11.70
2022-08-19T04:39:51.397Z,10.80
2022-08-19T04:40:51.368Z,9.60
2022-08-19T04:41:51.354Z,9.20
2022-08-19T04:42:51.362Z,10.70
2022-08-19T04:43:51.317Z,10.50
2022-08-19T04:44:51.303Z,10.70
2022-08-19T04:45:51.334Z,12.50
2022-08-19T04:46:52.091Z,15.20
2022-08-19T04:47:58.247Z,14.20
2022-08-19T04:48:51.273Z,13.60
2022-08-19T04:49:51.291Z,14.10
2022-08-19T04:50:51.232Z,14.40
2022-08-19T04:51:51.229Z,16.40
2022-08-19T04:52:51.200Z,15.60
2022-08-19T04:53:51.190Z,15.30
2022-08-19T04:54:51.183Z,15.50
2022-08-19T04:55:51.213Z,15.90
2022-08-19T04:56:51.164Z,17.10
2022-08-19T04:57:51.160Z,17.60
2022-08-19T04:58:51.176Z,14.30
2022-08-19T04:59:51.178Z,11.00
2022-08-19T05:00:51.173Z,10.40
2022-08-19T05:01:51.097Z,13.60
2022-08-19T05:02:51.137Z,16.10
2022-08-19T05:03:51.124Z,17.20
2022-08-19T05:04:51.092Z,15.70
2022-08-19T05:05:51.121Z,15.50
2022-08-19T05:06:51.087Z,15.10
2022-08-19T05:07:51.079Z,14.50
2022-08-19T05:08:51.084Z,16.60
2022-08-19T05:09:57.999Z,14.30
2022-08-19T05:10:51.050Z,12.90
2022-08-19T05:11:51.019Z,14.60
2022-08-19T05:12:50.992Z,13.70
2022-08-19T05:13:50.989Z,14.60
2022-08-19T05:14:50.985Z,12.20
2022-08-19T05:15:50.983Z,12.60
2022-08-19T05:17:02.473Z,11.40
2022-08-19T05:17:50.965Z,11.80
2022-08-19T05:18:50.918Z,14.00
2022-08-19T05:19:50.935Z,12.60
2022-08-19T05:20:50.936Z,13.80
2022-08-19T05:21:50.917Z,11.20
2022-08-19T05:22:50.988Z,11.20
2022-08-19T05:23:50.878Z,12.20
2022-08-19T05:25:09.634Z,13.30
2022-08-19T05:25:50.885Z,14.40
2022-08-19T05:26:50.842Z,15.10
2022-08-19T05:27:50.853Z,14.60
2022-08-19T05:28:54.233Z,16.00
2022-08-19T05:29:50.843Z,15.50
2022-08-19T05:30:50.841Z,15.90
2022-08-19T05:31:50.811Z,15.90
2022-08-19T05:32:50.820Z,17.20
2022-08-19T05:33:50.802Z,15.00
2022-08-19T05:34:50.782Z,16.30
2022-08-19T05:35:50.772Z,19.30
2022-08-19T05:36:50.809Z,20.00
2022-08-19T05:37:50.797Z,22.20
2022-08-19T05:38:50.742Z,22.60
2022-08-19T05:39:51.666Z,25.90
2022-08-19T05:40:50.707Z,23.40
2022-08-19T05:41:50.721Z,23.00
2022-08-19T05:42:55.409Z,20.00
2022-08-19T05:43:50.686Z,20.00
2022-08-19T05:44:50.674Z,23.00
2022-08-19T05:45:50.665Z,23.30
2022-08-19T05:46:50.637Z,24.60
2022-08-19T05:47:50.637Z,22.50
2022-08-19T05:48:50.627Z,19.90
2022-08-19T05:49:50.670Z,18.60
2022-08-19T05:50:50.601Z,19.80
2022-08-19T05:51:50.615Z,19.60
2022-08-19T05:52:50.831Z,22.40
2022-08-19T05:53:50.605Z,24.30
2022-08-19T05:54:51.484Z,23.90
2022-08-19T05:55:50.567Z,24.00
2022-08-19T05:56:50.527Z,24.10
2022-08-19T05:57:50.532Z,23.20
2022-08-19T05:58:50.522Z,23.90
2022-08-19T05:59:53.216Z,23.00
2022-08-19T06:00:50.540Z,24.10
2022-08-19T06:01:50.506Z,23.70
2022-08-19T06:02:50.567Z,23.30
2022-08-19T06:03:50.454Z,21.90
2022-08-19T06:04:50.474Z,23.20
2022-08-19T06:05:51.880Z,23.30
2022-08-19T06:06:50.447Z,23.30
2022-08-19T06:07:50.516Z,20.80
2022-08-19T06:08:50.434Z,21.30
2022-08-19T06:09:58.871Z,23.20
2022-08-19T06:10:50.402Z,22.90
2022-08-19T06:11:52.909Z,23.70
2022-08-19T06:12:50.398Z,23.00
2022-08-19T06:13:50.380Z,23.80
2022-08-19T06:15:01.299Z,25.80
2022-08-19T06:15:50.369Z,22.00
2022-08-19T06:16:50.349Z,22.70
2022-08-19T06:17:50.441Z,23.50
2022-08-19T06:18:50.325Z,23.60
2022-08-19T06:19:50.318Z,26.50
2022-08-19T06:20:55.850Z,23.00
2022-08-19T06:21:50.325Z,21.70
2022-08-19T06:22:50.266Z,21.90
2022-08-19T06:23:50.269Z,24.50
2022-08-19T06:24:50.270Z,21.60
2022-08-19T06:25:50.243Z,20.10
2022-08-19T06:26:50.307Z,20.70
2022-08-19T06:28:13.959Z,21.00
2022-08-19T06:28:50.209Z,21.20
2022-08-19T06:29:50.233Z,21.20
2022-08-19T06:30:50.217Z,20.90
2022-08-19T06:31:50.200Z,21.50
2022-08-19T06:32:50.153Z,20.50
2022-08-19T06:33:50.318Z,21.50
2022-08-19T06:34:50.212Z,21.30
2022-08-19T06:35:50.133Z,21.60
2022-08-19T06:36:50.152Z,22.50
2022-08-19T06:37:50.137Z,21.40
2022-08-19T06:38:50.096Z,22.30
2022-08-19T06:39:50.223Z,21.80
2022-08-19T06:40:50.107Z,22.20
2022-08-19T06:41:52.548Z,21.40
2022-08-19T06:42:54.805Z,22.30
2022-08-19T06:43:50.077Z,21.30
2022-08-19T06:44:50.129Z,22.60
2022-08-19T06:45:50.066Z,22.00
2022-08-19T06:46:54.700Z,21.00
2022-08-19T06:47:50.048Z,21.50
2022-08-19T06:48:50.033Z,20.70
2022-08-19T06:49:50.040Z,22.20
2022-08-19T06:50:50.002Z,21.00
2022-08-19T06:51:49.991Z,21.70
2022-08-19T06:52:50.003Z,21.60
2022-08-19T06:54:56.305Z,21.40
2022-08-19T06:55:49.966Z,20.70
2022-08-19T06:56:49.946Z,20.60
2022-08-19T06:57:49.963Z,20.30
2022-08-19T06:58:49.917Z,20.50
2022-08-19T06:59:49.947Z,20.40
2022-08-19T07:00:49.885Z,20.40
2022-08-19T07:01:49.898Z,21.80
2022-08-19T07:02:53.337Z,21.00
2022-08-19T07:03:49.910Z,20.60
2022-08-19T07:04:52.602Z,20.00
2022-08-19T07:05:49.862Z,20.80
2022-08-19T07:06:55.363Z,19.80
2022-08-19T07:07:49.830Z,20.30
2022-08-19T07:08:49.826Z,20.70
2022-08-19T07:09:57.306Z,21.20
2022-08-19T07:10:49.791Z,21.60
2022-08-19T07:11:49.812Z,20.70
2022-08-19T07:12:49.835Z,20.60
2022-08-19T07:13:49.752Z,20.90
2022-08-19T07:14:49.733Z,20.10
2022-08-19T07:15:49.728Z,19.90
2022-08-19T07:16:49.727Z,20.00
2022-08-19T07:17:52.571Z,20.20
2022-08-19T07:18:49.693Z,20.00
2022-08-19T07:19:49.716Z,19.20
2022-08-19T07:20:49.672Z,19.30
2022-08-19T07:21:49.676Z,19.40
2022-08-19T07:22:49.691Z,18.50
2022-08-19T07:23:49.651Z,18.50
2022-08-19T07:24:51.276Z,18.20
2022-08-19T07:25:52.787Z,18.50
2022-08-19T07:26:51.521Z,17.80
2022-08-19T07:27:54.458Z,19.00
2022-08-19T07:28:52.827Z,16.40
2022-08-19T07:29:57.159Z,16.20
2022-08-19T07:30:49.604Z,17.10
2022-08-19T07:31:49.562Z,16.50
2022-08-19T07:32:49.552Z,16.00
2022-08-19T07:33:49.545Z,16.00
2022-08-19T07:34:49.562Z,16.30
2022-08-19T07:35:49.527Z,16.70
2022-08-19T07:36:49.521Z,15.80
2022-08-19T07:37:49.550Z,16.20
2022-08-19T07:38:49.505Z,15.30
2022-08-19T07:39:49.525Z,15.60
2022-08-19T07:40:49.465Z,15.00
2022-08-19T07:41:49.462Z,14.10
2022-08-19T07:42:49.453Z,14.10
2022-08-19T07:43:49.447Z,12.60
2022-08-19T07:44:50.557Z,12.00
2022-08-19T07:45:49.432Z,13.30
2022-08-19T07:46:51.535Z,12.50
2022-08-19T07:47:51.348Z,12.40
2022-08-19T07:48:49.395Z,13.00
2022-08-19T07:49:49.376Z,12.10
2022-08-19T07:50:49.360Z,12.10
2022-08-19T07:51:49.373Z,12.20
2022-08-19T07:52:49.373Z,11.40
2022-08-19T07:53:49.363Z,11.50
2022-08-19T07:54:49.328Z,11.70
2022-08-19T07:55:49.341Z,12.20
2022-08-19T07:56:49.321Z,11.30
2022-08-19T07:57:49.317Z,11.30
2022-08-19T07:58:49.323Z,12.20
2022-08-19T07:59:49.276Z,11.00
2022-08-19T08:00:49.268Z,10.50
2022-08-19T08:01:49.302Z,10.80
2022-08-19T08:02:49.297Z,10.50
2022-08-19T08:03:49.264Z,10.60
2022-08-19T08:04:49.233Z,10.70
2022-08-19T08:05:49.201Z,10.10
2022-08-19T08:06:49.184Z,10.10
2022-08-19T08:07:49.217Z,10.60
2022-08-19T08:08:49.226Z,10.50
2022-08-19T08:09:49.778Z,10.60
2022-08-19T08:10:54.683Z,9.30
2022-08-19T08:11:49.167Z,9.30
2022-08-19T08:13:09.608Z,9.80
2022-08-19T08:13:49.156Z,9.70
2022-08-19T08:14:49.141Z,9.10
2022-08-19T08:15:49.127Z,9.50
2022-08-19T08:16:49.126Z,9.30
2022-08-19T08:17:51.608Z,9.40
2022-08-19T08:18:50.515Z,9.90
2022-08-19T08:19:49.073Z,9.20
2022-08-19T08:20:49.057Z,9.30
2022-08-19T08:21:49.060Z,9.50
2022-08-19T08:22:49.152Z,8.70
2022-08-19T08:23:49.091Z,9.40
2022-08-19T08:24:49.018Z,9.70
2022-08-19T08:25:49.244Z,9.30
2022-08-19T08:26:52.016Z,8.60
2022-08-19T08:27:48.990Z,8.70
2022-08-19T08:28:49.563Z,8.70
2022-08-19T08:29:48.954Z,8.40
2022-08-19T08:30:49.296Z,8.80
2022-08-19T08:31:48.939Z,9.00
2022-08-19T08:32:48.959Z,9.50
2022-08-19T08:33:48.961Z,8.40
2022-08-19T08:34:50.061Z,8.60
2022-08-19T08:35:48.915Z,8.90
2022-08-19T08:36:48.957Z,8.30
2022-08-19T08:37:51.026Z,8.40
2022-08-19T08:38:48.973Z,8.60
2022-08-19T08:39:48.959Z,8.30
2022-08-19T08:40:48.876Z,8.20
2022-08-19T08:41:48.850Z,7.30
2022-08-19T08:42:48.928Z,7.70
2022-08-19T08:43:49.093Z,7.50
2022-08-19T08:44:48.888Z,7.20
2022-08-19T08:45:53.649Z,6.80
2022-08-19T08:46:48.809Z,7.00
2022-08-19T08:47:52.506Z,7.40
2022-08-19T08:48:52.795Z,6.50
2022-08-19T08:49:51.222Z,6.80
2022-08-19T08:50:48.773Z,6.90
2022-08-19T08:51:48.763Z,5.90
2022-08-19T08:52:48.800Z,5.90
2022-08-19T08:53:48.785Z,6.40
2022-08-19T08:54:55.461Z,6.80
2022-08-19T08:55:48.720Z,7.00
2022-08-19T08:56:48.757Z,7.60
2022-08-19T08:57:48.973Z,6.60
2022-08-19T08:58:52.550Z,7.20
2022-08-19T08:59:48.681Z,7.70
2022-08-19T09:00:48.660Z,9.50
2022-08-19T09:01:48.720Z,9.30
2022-08-19T09:02:50.731Z,8.60
2022-08-19T09:03:48.620Z,7.60
2022-08-19T09:04:49.483Z,7.90
2022-08-19T09:05:48.955Z,8.00
2022-08-19T09:06:48.616Z,7.30
2022-08-19T09:07:48.701Z,6.60
2022-08-19T09:08:48.586Z,6.10
2022-08-19T09:09:48.570Z,6.80
2022-08-19T09:10:48.620Z,8.20
2022-08-19T09:11:48.542Z,8.20
2022-08-19T09:12:48.585Z,7.50
2022-08-19T09:13:48.568Z,7.50
2022-08-19T09:14:51.282Z,8.00
2022-08-19T09:15:48.526Z,7.70
2022-08-19T09:16:48.547Z,7.50
2022-08-19T09:17:50.308Z,6.90
2022-08-19T09:18:48.502Z,6.50
2022-08-19T09:19:48.468Z,6.70
2022-08-19T09:20:48.495Z,6.60
2022-08-19T09:21:48.436Z,9.30
2022-08-19T09:22:48.471Z,7.30
2022-08-19T09:23:48.431Z,6.70
2022-08-19T09:24:48.428Z,8.10
2022-08-19T09:25:48.439Z,8.90
2022-08-19T09:26:52.834Z,8.40
2022-08-19T09:27:48.440Z,8.60
2022-08-19T09:28:48.742Z,8.20
2022-08-19T09:29:48.347Z,8.10
2022-08-19T09:30:48.438Z,7.30
2022-08-19T09:31:48.345Z,8.10
2022-08-19T09:32:52.898Z,9.90
2022-08-19T09:33:48.331Z,8.20
2022-08-19T09:34:51.210Z,9.10
2022-08-19T09:35:53.057Z,8.60
2022-08-19T09:36:48.312Z,9.40
2022-08-19T09:37:48.353Z,10.30
2022-08-19T09:38:48.266Z,9.80
2022-08-19T09:39:48.354Z,10.90
2022-08-19T09:40:48.259Z,10.10
2022-08-19T09:41:49.053Z,11.00
2022-08-19T09:42:50.026Z,9.50
2022-08-19T09:43:48.228Z,10.90
2022-08-19T09:44:48.242Z,10.60
2022-08-19T09:45:48.179Z,10.90
2022-08-19T09:46:48.454Z,11.40
2022-08-19T09:47:48.252Z,12.00
2022-08-19T09:48:48.199Z,13.70
2022-08-19T09:49:48.170Z,11.70
2022-08-19T09:50:51.473Z,10.80
2022-08-19T09:51:51.206Z,11.30
2022-08-19T09:52:57.132Z,11.70
2022-08-19T09:53:48.152Z,12.20
2022-08-19T09:54:51.923Z,11.00
2022-08-19T09:55:48.106Z,10.70
2022-08-19T09:56:48.158Z,10.50
2022-08-19T09:57:48.111Z,10.70
2022-08-19T09:58:48.100Z,13.30
2022-08-19T09:59:48.292Z,11.30
2022-08-19T10:00:50.928Z,11.40
2022-08-19T10:01:48.060Z,12.40
2022-08-19T10:02:48.051Z,11.40
2022-08-19T10:03:48.053Z,12.70
2022-08-19T10:04:48.033Z,12.10
2022-08-19T10:05:48.629Z,12.40
2022-08-19T10:06:48.011Z,12.50
2022-08-19T10:07:48.027Z,10.30
2022-08-19T10:08:50.330Z,11.90
2022-08-19T10:09:47.948Z,12.70
2022-08-19T10:10:47.931Z,12.50
2022-08-19T10:11:54.586Z,12.90
2022-08-19T10:12:48.763Z,12.80
2022-08-19T10:13:47.900Z,12.50
2022-08-19T10:14:47.963Z,12.80
2022-08-19T10:15:49.402Z,11.50
2022-08-19T10:16:47.943Z,11.70
2022-08-19T10:17:48.223Z,13.30
2022-08-19T10:18:49.663Z,12.70
2022-08-19T10:19:49.071Z,12.00
2022-08-19T10:20:51.471Z,14.40
2022-08-19T10:21:47.852Z,13.10
2022-08-19T10:22:47.841Z,11.90
2022-08-19T10:23:47.841Z,10.10
2022-08-19T10:24:47.799Z,11.20
2022-08-19T10:25:48.307Z,12.20
2022-08-19T10:26:47.792Z,12.00
2022-08-19T10:27:51.216Z,14.10
2022-08-19T10:28:47.763Z,13.60
2022-08-19T10:29:47.770Z,13.40
2022-08-19T10:30:47.752Z,12.40
2022-08-19T10:32:01.236Z,12.20
2022-08-19T10:32:47.720Z,10.90
2022-08-19T10:33:53.969Z,10.40
2022-08-19T10:34:48.975Z,11.90
2022-08-19T10:35:57.053Z,10.30
2022-08-19T10:36:56.084Z,9.10
2022-08-19T10:37:57.499Z,10.10
2022-08-19T10:38:53.454Z,11.20
2022-08-19T10:39:47.817Z,11.00
2022-08-19T10:40:47.640Z,12.40
2022-08-19T10:41:47.647Z,11.00
2022-08-19T10:42:47.630Z,11.30
2022-08-19T10:43:47.607Z,10.90
2022-08-19T10:44:47.626Z,10.90
2022-08-19T10:45:52.576Z,9.30
2022-08-19T10:46:48.955Z,11.40
2022-08-19T10:47:47.562Z,11.10
2022-08-19T10:48:47.563Z,9.40
2022-08-19T10:49:47.560Z,8.80
2022-08-19T10:50:47.559Z,9.40
2022-08-19T10:51:47.985Z,9.10
2022-08-19T10:52:48.960Z,11.60
2022-08-19T10:53:47.491Z,10.80
2022-08-19T10:54:47.518Z,9.60
2022-08-19T10:55:47.492Z,11.00
2022-08-19T10:56:47.485Z,8.30
2022-08-19T10:58:01.706Z,9.00
2022-08-19T10:58:47.480Z,9.50
2022-08-19T10:59:47.455Z,8.40
2022-08-19T11:00:47.479Z,8.30
2022-08-19T11:01:47.416Z,9.50
2022-08-19T11:02:47.414Z,9.90
2022-08-19T11:03:47.407Z,9.00
2022-08-19T11:04:47.408Z,8.70
2022-08-19T11:05:47.381Z,8.10
2022-08-19T11:06:47.377Z,8.80
2022-08-19T11:07:47.419Z,9.90
2022-08-19T11:08:47.370Z,9.00
2022-08-19T11:09:47.385Z,9.70
2022-08-19T11:10:50.503Z,7.50
2022-08-19T11:11:47.318Z,7.10
2022-08-19T11:12:47.354Z,6.80
2022-08-19T11:13:47.332Z,7.70
2022-08-19T11:14:47.311Z,7.10
2022-08-19T11:15:47.310Z,7.70
2022-08-19T11:16:47.285Z,7.50
2022-08-19T11:17:47.307Z,7.10
2022-08-19T11:18:47.310Z,7.80
2022-08-19T11:19:47.237Z,8.70
2022-08-19T11:20:47.274Z,7.60
2022-08-19T11:21:47.234Z,7.10
2022-08-19T11:22:47.217Z,7.20
2022-08-19T11:23:47.201Z,7.60
2022-08-19T11:24:47.226Z,8.50
2022-08-19T11:25:47.172Z,7.50
2022-08-19T11:26:47.256Z,8.20
2022-08-19T11:27:47.276Z,7.00
2022-08-19T11:28:47.172Z,7.00
2022-08-19T11:29:47.165Z,7.10
2022-08-19T11:30:47.156Z,7.00
2022-08-19T11:31:47.146Z,7.10
2022-08-19T11:32:49.343Z,6.10
2022-08-19T11:33:47.758Z,5.60
2022-08-19T11:34:47.100Z,5.20
2022-08-19T11:35:47.094Z,6.00
2022-08-19T11:36:47.113Z,5.60
2022-08-19T11:37:47.065Z,5.40
2022-08-19T11:38:47.068Z,6.20
2022-08-19T11:39:53.301Z,7.90
2022-08-19T11:40:47.078Z,6.70
2022-08-19T11:41:47.048Z,7.00
2022-08-19T11:42:47.024Z,7.30
2022-08-19T11:43:47.010Z,6.50
2022-08-19T11:44:47.019Z,6.10
2022-08-19T11:45:46.992Z,6.50
2022-08-19T11:46:47.009Z,9.50
2022-08-19T11:47:46.961Z,8.90
2022-08-19T11:48:46.989Z,10.90
2022-08-19T11:49:46.947Z,9.30
2022-08-19T11:50:46.940Z,8.50
2022-08-19T11:51:46.931Z,8.40
2022-08-19T11:52:46.922Z,7.20
2022-08-19T11:53:46.914Z,7.50
2022-08-19T11:54:46.918Z,9.90
2022-08-19T11:55:46.909Z,7.40
2022-08-19T11:56:46.907Z,9.80
2022-08-19T11:57:46.897Z,10.00
2022-08-19T11:58:46.863Z,10.20
2022-08-19T11:59:46.853Z,11.10
2022-08-19T12:00:46.848Z,10.20
2022-08-19T12:01:46.857Z,11.00
2022-08-19T12:02:46.836Z,9.20
2022-08-19T12:03:46.822Z,9.80
2022-08-19T12:04:46.817Z,11.70
2022-08-19T12:05:46.784Z,11.10
2022-08-19T12:06:46.792Z,10.60
2022-08-19T12:07:46.774Z,10.50
2022-08-19T12:08:46.752Z,9.70
2022-08-19T12:09:48.634Z,11.90
2022-08-19T12:10:46.763Z,11.90
2022-08-19T12:11:46.741Z,11.70
2022-08-19T12:12:47.373Z,12.50
2022-08-19T12:13:46.710Z,10.00
2022-08-19T12:14:46.699Z,9.30
2022-08-19T12:15:46.686Z,12.30
2022-08-19T12:16:51.433Z,12.40
2022-08-19T12:17:46.689Z,11.40
2022-08-19T12:18:46.701Z,11.40
2022-08-19T12:19:46.635Z,11.00
2022-08-19T12:20:46.636Z,9.30
2022-08-19T12:21:46.629Z,9.70
2022-08-19T12:22:46.620Z,11.20
2022-08-19T12:23:46.611Z,9.90
2022-08-19T12:24:46.596Z,11.20
2022-08-19T12:25:46.586Z,12.10
2022-08-19T12:26:53.329Z,11.70
2022-08-19T12:27:49.790Z,11.70
2022-08-19T12:28:46.563Z,9.40
2022-08-19T12:29:46.572Z,9.10
2022-08-19T12:30:46.535Z,9.40
2022-08-19T12:31:46.548Z,9.70
2022-08-19T12:32:46.538Z,9.00
2022-08-19T12:33:46.543Z,9.20
2022-08-19T12:34:46.491Z,9.90
2022-08-19T12:35:46.507Z,9.60
2022-08-19T12:36:46.477Z,9.30
2022-08-19T12:37:57.407Z,9.90
2022-08-19T12:38:46.471Z,9.10
2022-08-19T12:39:46.551Z,7.80
2022-08-19T12:40:46.429Z,8.60
2022-08-19T12:41:51.457Z,8.70
2022-08-19T12:42:46.429Z,8.40
2022-08-19T12:43:46.457Z,9.40
2022-08-19T12:44:46.415Z,8.00
2022-08-19T12:45:47.063Z,8.00
2022-08-19T12:46:46.377Z,7.90
2022-08-19T12:47:46.369Z,7.70
2022-08-19T12:48:46.378Z,7.50
2022-08-19T12:49:54.353Z,7.30
2022-08-19T12:50:46.353Z,7.00
2022-08-19T12:51:46.341Z,7.30
2022-08-19T12:52:46.333Z,7.00
2022-08-19T12:53:46.328Z,7.40
2022-08-19T12:54:46.309Z,6.40
2022-08-19T12:55:46.321Z,6.30
2022-08-19T12:56:46.285Z,6.10
2022-08-19T12:57:46.303Z,6.30
2022-08-19T12:58:49.094Z,5.40
2022-08-19T12:59:46.264Z,5.60
2022-08-19T13:00:46.279Z,5.40
2022-08-19T13:01:46.257Z,6.10
2022-08-19T13:02:46.265Z,5.20
2022-08-19T13:03:46.227Z,5.40
2022-08-19T13:04:46.204Z,5.80
2022-08-19T13:05:46.185Z,6.40
2022-08-19T13:06:46.173Z,5.90
2022-08-19T13:07:46.183Z,5.20